< < Back
Terminal Aerodrome Forecast


Current Version              Previous Versions:   1  2  3  4  5  6  7  8  9  

Terminal Aerodrome Forecast

937
FTUS42 KGSP 261130
TAFCLT
TAF
KCLT 261130Z 2612/2712 21004KT P6SM FEW060 SCT250
     FM261800 22006KT P6SM BKN060 PROB30 2622/2702 4SM -TSRA
      BKN060CB
     FM270300 23004KT P6SM SCT050=

Latest METAR

981
SAUS70 KWBC 262100 RRB
MTRCLT
METAR KCLT 262052Z 25006KT 10SM TS SCT055CB BKN250 34/21 A2997 RMK AO2
TSB15 SLP137 OCNL LTGICCG VC TS W MOV SLWLY S TCU N-E
T03440206 56015


USA.gov is the U.S. government's official web portal to all federal, state and local government web resources and services.